Time;durP1;ratioP1;P1;durP2;ratioP2;P2;SDS_P1;SDS_P2;PMS_P1;PMS_P2;Temp;Humidity;BMP_temperature;BMP_pressure;BME280_temperature;BME280_humidity;BME280_pressure;Samples;Min_cycle;Max_cycle;Signal;HPM_P1;HPM_P2
2021/09/01 00:01:30;;;;;;;20.20;9.05;;;14.10;99.90;;;;;;5042720;28;20064;-46
2021/09/01 00:03:55;;;;;;;13.55;9.18;;;14.10;99.90;;;;;;5042136;28;20048;-47
2021/09/01 00:06:21;;;;;;;13.93;8.85;;;14.10;99.90;;;;;;5039634;28;20032;-46
2021/09/01 00:08:50;;;;;;;17.65;8.73;;;14.10;99.90;;;;;;5042280;28;20032;-46
2021/09/01 00:11:16;;;;;;;17.58;9.90;;;14.10;99.90;;;;;;5039650;28;20033;-46
2021/09/01 00:13:42;;;;;;;20.00;9.40;;;14.10;99.90;;;;;;5041168;28;20633;-46
2021/09/01 00:16:25;;;;;;;19.35;9.82;;;14.10;99.90;;;;;;5040998;28;20040;-50
2021/09/01 00:18:54;;;;;;;15.20;9.18;;;14.10;99.90;;;;;;5041282;28;20017;-49
2021/09/01 00:21:20;;;;;;;18.35;10.18;;;14.10;99.90;;;;;;5035487;28;20117;-46
2021/09/01 00:23:45;;;;;;;18.67;9.00;;;14.10;99.90;;;;;;5041692;28;20485;-50
2021/09/01 00:26:11;;;;;;;17.92;9.05;;;14.10;99.90;;;;;;5039214;28;20017;-52
2021/09/01 00:28:37;;;;;;;17.77;8.88;;;14.10;99.90;;;;;;5039312;28;20071;-47
2021/09/01 00:31:02;;;;;;;13.98;8.85;;;14.10;99.90;;;;;;5040312;28;20013;-47
2021/09/01 00:33:28;;;;;;;23.40;9.57;;;14.10;99.90;;;;;;5035594;28;20537;-49
2021/09/01 00:35:53;;;;;;;16.27;9.07;;;14.10;99.90;;;;;;5040635;28;20055;-47
2021/09/01 00:38:19;;;;;;;14.60;9.02;;;14.10;99.90;;;;;;5036699;28;20772;-46
2021/09/01 00:40:44;;;;;;;16.70;9.68;;;14.10;99.90;;;;;;5041751;28;20447;-47
2021/09/01 00:43:10;;;;;;;14.10;8.43;;;14.10;99.90;;;;;;5038201;28;20124;-48
2021/09/01 00:45:35;;;;;;;14.75;8.27;;;14.10;99.90;;;;;;5034733;28;20022;-46
2021/09/01 00:48:02;;;;;;;19.27;8.98;;;14.10;99.90;;;;;;5039184;28;20021;-46
2021/09/01 00:50:28;;;;;;;19.75;8.55;;;14.10;99.90;;;;;;5035709;28;20195;-46
2021/09/01 00:52:54;;;;;;;13.73;7.55;;;14.10;99.90;;;;;;5038272;28;20717;-46
2021/09/01 00:55:22;;;;;;;16.60;8.65;;;14.10;99.90;;;;;;5044057;28;20029;-46
2021/09/01 00:57:49;;;;;;;21.27;9.00;;;14.10;99.90;;;;;;5036274;28;20029;-52
2021/09/01 01:00:24;;;;;;;15.80;8.35;;;14.10;99.90;;;;;;5043285;28;20029;-52
2021/09/01 01:02:49;;;;;;;17.67;9.70;;;14.10;99.90;;;;;;5036011;28;20017;-50
2021/09/01 01:05:15;;;;;;;18.08;8.77;;;14.10;99.90;;;;;;5030792;28;20406;-47
2021/09/01 01:07:40;;;;;;;14.75;7.68;;;14.10;99.90;;;;;;5042084;28;20525;-50
2021/09/01 01:10:06;;;;;;;18.65;7.97;;;14.10;99.90;;;;;;5036130;28;20105;-47
2021/09/01 01:12:33;;;;;;;15.10;7.95;;;14.10;99.90;;;;;;5038368;28;20425;-50
2021/09/01 01:14:59;;;;;;;17.50;8.40;;;14.10;99.90;;;;;;5037627;28;20025;-50
2021/09/01 01:17:24;;;;;;;18.02;7.68;;;14.10;99.90;;;;;;5041098;28;20033;-49
2021/09/01 01:19:52;;;;;;;18.80;7.93;;;14.10;99.90;;;;;;5035735;28;20029;-46
2021/09/01 01:22:20;;;;;;;13.52;7.53;;;14.10;99.90;;;;;;5043749;28;20022;-47
2021/09/01 01:25:09;;;;;;;13.20;7.72;;;14.10;99.90;;;;;;5036553;28;20041;-49
2021/09/01 01:27:40;;;;;;;14.40;6.47;;;14.10;99.90;;;;;;5031223;28;20080;-48
2021/09/01 01:30:18;;;;;;;22.52;8.13;;;14.00;99.90;;;;;;5037187;28;20028;-51
2021/09/01 01:32:47;;;;;;;16.88;7.22;;;14.10;99.90;;;;;;5040364;28;20100;-51
2021/09/01 01:35:31;;;;;;;15.10;7.30;;;14.10;99.90;;;;;;5039641;28;20048;-47
2021/09/01 01:37:58;;;;;;;14.18;7.18;;;14.10;99.90;;;;;;5039156;28;20534;-47
2021/09/01 01:40:25;;;;;;;16.23;7.25;;;14.10;99.90;;;;;;5040634;28;20501;-48
2021/09/01 01:42:53;;;;;;;17.05;8.40;;;14.10;99.90;;;;;;5037847;28;20025;-49
2021/09/01 01:45:23;;;;;;;16.00;7.70;;;14.00;99.90;;;;;;5037329;28;20495;-48
2021/09/01 01:47:49;;;;;;;17.52;7.55;;;14.00;99.90;;;;;;5040859;28;20048;-46
2021/09/01 01:50:15;;;;;;;18.27;7.97;;;14.10;99.90;;;;;;5038163;28;20123;-48
2021/09/01 01:52:40;;;;;;;16.83;7.50;;;14.00;99.90;;;;;;5040555;28;20021;-48
2021/09/01 01:55:08;;;;;;;13.25;7.35;;;14.00;99.90;;;;;;5038450;28;20040;-49
2021/09/01 01:57:34;;;;;;;14.13;7.45;;;14.00;99.90;;;;;;5039833;28;20063;-47
2021/09/01 01:59:59;;;;;;;12.70;8.15;;;14.00;99.90;;;;;;5039232;28;20052;-46
2021/09/01 02:02:30;;;;;;;9.90;7.03;;;14.00;99.90;;;;;;5038677;28;20032;-47
2021/09/01 02:04:57;;;;;;;17.67;7.55;;;14.00;99.90;;;;;;5039407;28;20017;-46
2021/09/01 02:07:22;;;;;;;14.90;7.45;;;14.00;99.90;;;;;;5038870;28;20017;-52
2021/09/01 02:09:48;;;;;;;15.82;8.15;;;14.00;99.90;;;;;;5040145;28;20029;-46
2021/09/01 02:12:13;;;;;;;13.15;7.75;;;14.00;99.90;;;;;;5037252;28;20487;-45
2021/09/01 02:14:39;;;;;;;9.95;6.85;;;14.00;99.90;;;;;;5040167;28;20025;-48
2021/09/01 02:17:04;;;;;;;16.15;7.80;;;14.00;99.90;;;;;;5037097;28;20052;-52
2021/09/01 02:19:30;;;;;;;18.40;7.03;;;14.00;99.90;;;;;;5040124;28;20422;-48
2021/09/01 02:21:55;;;;;;;13.20;7.43;;;14.00;99.90;;;;;;5038363;28;20017;-46
2021/09/01 02:24:21;;;;;;;21.38;7.82;;;14.00;99.90;;;;;;5039659;28;20505;-48
2021/09/01 02:26:47;;;;;;;10.45;7.60;;;14.00;99.90;;;;;;5039568;28;20048;-49
2021/09/01 02:29:12;;;;;;;10.10;7.30;;;14.00;99.90;;;;;;5037217;28;20086;-48
2021/09/01 02:31:38;;;;;;;14.30;7.28;;;14.00;99.90;;;;;;5040603;28;20017;-46
2021/09/01 02:34:03;;;;;;;11.45;7.05;;;14.00;99.90;;;;;;5038747;28;20544;-49
2021/09/01 02:36:30;;;;;;;13.63;7.45;;;14.00;99.90;;;;;;5039109;28;20569;-49
2021/09/01 02:38:55;;;;;;;13.00;6.88;;;14.00;99.90;;;;;;5039803;28;20119;-49
2021/09/01 02:41:23;;;;;;;11.82;6.65;;;14.00;99.90;;;;;;5038926;28;20542;-47
2021/09/01 02:43:50;;;;;;;12.13;7.25;;;14.00;99.90;;;;;;5038781;28;20023;-47
2021/09/01 02:46:15;;;;;;;10.88;7.07;;;14.00;99.90;;;;;;5035875;28;20031;-52
2021/09/01 02:48:41;;;;;;;9.27;6.57;;;14.00;99.90;;;;;;5040436;28;20017;-49
2021/09/01 02:51:07;;;;;;;13.80;8.43;;;14.00;99.90;;;;;;5036665;28;20438;-50
2021/09/01 02:53:32;;;;;;;16.58;7.90;;;14.00;99.90;;;;;;5040291;28;20261;-48
2021/09/01 02:55:58;;;;;;;16.20;7.70;;;14.00;99.90;;;;;;5037678;28;20422;-48
2021/09/01 02:58:24;;;;;;;14.82;7.13;;;14.00;99.90;;;;;;5039440;28;20055;-51
2021/09/01 03:00:49;;;;;;;13.52;7.03;;;14.00;99.90;;;;;;5038439;28;20029;-49
2021/09/01 03:03:15;;;;;;;12.75;7.78;;;13.90;99.90;;;;;;5037005;28;20272;-49
2021/09/01 03:05:41;;;;;;;13.88;7.60;;;13.90;99.90;;;;;;5041351;28;20013;-51
2021/09/01 03:08:07;;;;;;;14.10;8.27;;;13.90;99.90;;;;;;5041489;28;20021;-50
2021/09/01 03:10:33;;;;;;;17.38;8.23;;;13.90;99.90;;;;;;5044044;28;20024;-46
2021/09/01 03:12:59;;;;;;;17.70;8.80;;;13.90;99.90;;;;;;5035179;28;20145;-53
2021/09/01 03:15:25;;;;;;;14.30;8.50;;;13.90;99.90;;;;;;5044629;28;20526;-48
2021/09/01 03:17:50;;;;;;;15.98;8.55;;;13.90;99.90;;;;;;5039632;28;20025;-51
2021/09/01 03:20:16;;;;;;;13.30;8.43;;;14.00;99.90;;;;;;5046595;28;20060;-47
2021/09/01 03:22:41;;;;;;;11.20;7.88;;;14.00;99.90;;;;;;5039089;28;20030;-49
2021/09/01 03:25:07;;;;;;;20.77;9.07;;;14.00;99.90;;;;;;5047030;28;20017;-48
2021/09/01 03:27:33;;;;;;;16.90;8.68;;;14.00;99.90;;;;;;5038723;28;20049;-48
2021/09/01 03:29:59;;;;;;;15.30;7.75;;;14.00;99.90;;;;;;5038636;28;20052;-55
2021/09/01 03:32:24;;;;;;;18.65;9.15;;;14.00;99.90;;;;;;5044981;28;20021;-51
2021/09/01 03:34:50;;;;;;;15.88;8.00;;;14.00;99.90;;;;;;5038917;28;20025;-52
2021/09/01 03:37:15;;;;;;;13.50;8.18;;;14.00;99.90;;;;;;5045976;28;20036;-49
2021/09/01 03:39:41;;;;;;;17.55;9.70;;;14.00;99.90;;;;;;5039251;28;20051;-54
2021/09/01 03:42:07;;;;;;;17.75;8.75;;;14.00;99.90;;;;;;5046623;28;20502;-48
2021/09/01 03:44:33;;;;;;;22.42;9.15;;;14.00;99.90;;;;;;5036969;28;20403;-49
2021/09/01 03:46:58;;;;;;;17.00;8.45;;;14.00;99.90;;;;;;5039468;28;20026;-50
2021/09/01 03:49:24;;;;;;;17.52;9.07;;;13.90;99.90;;;;;;5044287;28;20076;-48
2021/09/01 03:51:49;;;;;;;17.40;8.45;;;13.90;99.90;;;;;;5037890;28;20032;-52
2021/09/01 03:54:16;;;;;;;20.23;10.55;;;13.90;99.90;;;;;;5046262;28;20040;-48
2021/09/01 03:56:41;;;;;;;18.23;9.20;;;13.90;99.90;;;;;;5037153;28;20075;-48
2021/09/01 03:59:07;;;;;;;18.40;9.55;;;13.90;99.90;;;;;;5046478;28;20639;-48
2021/09/01 04:01:34;;;;;;;15.52;7.97;;;14.00;99.90;;;;;;5038640;28;20629;-48
2021/09/01 04:04:01;;;;;;;16.38;8.82;;;13.90;99.90;;;;;;5039632;28;20472;-48
2021/09/01 04:06:27;;;;;;;14.73;9.18;;;13.90;99.90;;;;;;5042815;28;20017;-51
2021/09/01 04:08:52;;;;;;;15.27;9.57;;;13.90;99.90;;;;;;5038580;28;20013;-49
2021/09/01 04:11:18;;;;;;;15.80;9.43;;;13.90;99.90;;;;;;5046084;28;20399;-53
2021/09/01 04:13:44;;;;;;;17.05;9.45;;;13.90;99.90;;;;;;5036410;28;20020;-50
2021/09/01 04:16:09;;;;;;;19.75;10.00;;;13.90;99.90;;;;;;5039082;28;20561;-50
2021/09/01 04:18:35;;;;;;;15.82;9.48;;;13.90;99.90;;;;;;5041434;28;20471;-48
2021/09/01 04:21:01;;;;;;;18.83;9.10;;;13.90;99.90;;;;;;5040756;28;20021;-51
2021/09/01 04:23:26;;;;;;;16.13;8.52;;;13.90;99.90;;;;;;5042075;28;20020;-53
2021/09/01 04:25:52;;;;;;;15.43;9.70;;;13.90;99.90;;;;;;5041104;28;20083;-49
2021/09/01 04:28:18;;;;;;;17.67;9.07;;;13.90;99.90;;;;;;5041518;28;20029;-51
2021/09/01 04:30:43;;;;;;;16.30;9.27;;;14.00;99.90;;;;;;5041016;28;20453;-51
2021/09/01 04:33:09;;;;;;;10.80;8.15;;;14.00;99.90;;;;;;5040388;28;20030;-50
2021/09/01 04:35:36;;;;;;;17.70;8.95;;;14.00;99.90;;;;;;5039975;28;20088;-50
2021/09/01 04:38:02;;;;;;;19.48;9.80;;;14.00;99.90;;;;;;5040075;28;20041;-48
2021/09/01 04:40:28;;;;;;;21.30;11.25;;;14.00;99.90;;;;;;5041846;28;20025;-51
2021/09/01 04:42:53;;;;;;;17.73;9.48;;;14.00;99.90;;;;;;5039495;28;20021;-49
2021/09/01 04:45:19;;;;;;;18.23;9.90;;;14.00;99.90;;;;;;5041070;28;20017;-48
2021/09/01 04:47:44;;;;;;;19.80;9.90;;;14.00;99.90;;;;;;5040615;28;20013;-47
2021/09/01 04:50:11;;;;;;;21.17;9.82;;;14.00;99.90;;;;;;5039545;28;20033;-49
2021/09/01 04:52:36;;;;;;;19.85;10.02;;;14.00;99.90;;;;;;5041247;28;20487;-49
2021/09/01 04:55:02;;;;;;;19.13;11.30;;;13.90;99.90;;;;;;5039399;28;20036;-50
2021/09/01 04:57:28;;;;;;;18.67;9.27;;;13.90;99.90;;;;;;5041252;28;20182;-48
2021/09/01 04:59:53;;;;;;;17.95;10.23;;;13.90;99.90;;;;;;5040669;28;20493;-50
2021/09/01 05:02:19;;;;;;;17.00;9.10;;;13.90;99.90;;;;;;5041064;28;20025;-48
2021/09/01 05:04:44;;;;;;;16.05;10.15;;;13.90;99.90;;;;;;5039716;28;20060;-47
2021/09/01 05:07:10;;;;;;;17.27;9.38;;;13.80;99.90;;;;;;5039565;28;20064;-49
2021/09/01 05:09:35;;;;;;;18.88;9.30;;;13.80;99.90;;;;;;5041091;28;20024;-45
2021/09/01 05:12:01;;;;;;;18.45;10.15;;;13.80;99.90;;;;;;5039265;28;20143;-48
2021/09/01 05:14:27;;;;;;;19.70;10.13;;;13.80;99.90;;;;;;5039302;28;20100;-46
2021/09/01 05:16:52;;;;;;;17.83;10.50;;;13.80;99.90;;;;;;5040818;28;20025;-51
2021/09/01 05:19:18;;;;;;;16.73;10.05;;;13.80;99.90;;;;;;5036142;28;20546;-48
2021/09/01 05:21:53;;;;;;;18.40;9.90;;;13.80;99.90;;;;;;5040229;28;20020;-48
2021/09/01 05:24:48;;;;;;;20.42;10.80;;;13.80;99.90;;;;;;5040362;28;20020;-49
2021/09/01 05:27:18;;;;;;;15.90;9.77;;;13.70;99.90;;;;;;5037972;28;20025;-50
2021/09/01 05:29:46;;;;;;;17.92;9.68;;;13.80;99.90;;;;;;5037110;28;20013;-49
2021/09/01 05:32:26;;;;;;;14.65;10.10;;;13.80;99.90;;;;;;5041951;28;20020;-48
2021/09/01 05:35:01;;;;;;;17.40;9.27;;;13.80;99.90;;;;;;5032809;28;20013;-48
2021/09/01 05:37:27;;;;;;;11.70;7.40;;;13.90;99.90;;;;;;5029812;28;20030;-46
2021/09/01 05:39:56;;;;;;;15.93;9.40;;;13.90;99.90;;;;;;5036579;28;20484;-48
2021/09/01 05:42:24;;;;;;;15.43;9.60;;;13.90;99.90;;;;;;5028958;28;20021;-52
2021/09/01 05:44:50;;;;;;;16.95;10.50;;;13.90;99.90;;;;;;5036415;28;20021;-49
2021/09/01 05:47:17;;;;;;;13.98;9.38;;;13.90;99.90;;;;;;5039754;28;20527;-49
2021/09/01 05:49:46;;;;;;;15.60;10.55;;;13.90;99.90;;;;;;5039804;28;20022;-49
2021/09/01 05:52:12;;;;;;;13.15;7.93;;;13.80;99.90;;;;;;5039011;28;20083;-49
2021/09/01 05:54:44;;;;;;;14.50;9.25;;;13.90;99.90;;;;;;5037427;28;20063;-46
2021/09/01 05:57:15;;;;;;;21.92;10.68;;;13.90;99.90;;;;;;5038610;28;20017;-48
2021/09/01 05:59:44;;;;;;;13.32;9.73;;;14.00;99.90;;;;;;5041438;28;20020;-49
2021/09/01 06:02:16;;;;;;;15.52;10.52;;;14.00;99.90;;;;;;5038700;28;20086;-52
2021/09/01 06:04:45;;;;;;;15.27;10.45;;;14.00;99.90;;;;;;5039851;28;20384;-53
2021/09/01 06:07:16;;;;;;;16.50;10.80;;;14.10;99.90;;;;;;5038943;28;20060;-46
2021/09/01 06:09:44;;;;;;;20.25;11.18;;;14.10;99.90;;;;;;5040177;28;20021;-47
2021/09/01 06:12:20;;;;;;;15.80;10.35;;;14.10;99.90;;;;;;5035912;28;20022;-53
2021/09/01 06:14:46;;;;;;;14.27;10.00;;;14.10;99.90;;;;;;5040058;28;20071;-51
2021/09/01 06:17:12;;;;;;;14.23;9.88;;;14.10;99.90;;;;;;5037218;28;20487;-51
2021/09/01 06:19:38;;;;;;;16.73;10.48;;;14.10;99.90;;;;;;5041220;28;20025;-50
2021/09/01 06:22:05;;;;;;;23.48;11.38;;;14.20;99.90;;;;;;5037858;28;20432;-50
2021/09/01 06:24:32;;;;;;;13.77;9.68;;;14.10;99.90;;;;;;5040968;28;20096;-48
2021/09/01 06:26:59;;;;;;;13.63;8.90;;;14.20;99.90;;;;;;5038432;28;20653;-45
2021/09/01 06:29:25;;;;;;;16.73;10.20;;;14.20;99.90;;;;;;5036059;28;20577;-48
2021/09/01 06:31:50;;;;;;;15.93;9.52;;;14.20;99.90;;;;;;5041672;28;20029;-50
2021/09/01 06:34:16;;;;;;;16.80;10.30;;;14.30;99.90;;;;;;5036544;28;20033;-49
2021/09/01 06:36:42;;;;;;;17.85;9.35;;;14.40;99.90;;;;;;5040908;28;20111;-50
2021/09/01 06:39:08;;;;;;;11.65;8.82;;;14.50;99.90;;;;;;5038600;28;20036;-47
2021/09/01 06:41:34;;;;;;;14.65;9.88;;;14.60;99.90;;;;;;5043842;28;20064;-47
2021/09/01 06:43:59;;;;;;;11.82;9.32;;;14.60;99.90;;;;;;5043391;28;20471;-48
2021/09/01 06:46:25;;;;;;;15.48;9.77;;;14.70;99.90;;;;;;5040249;28;20022;-52
2021/09/01 06:48:50;;;;;;;15.32;8.88;;;14.80;99.90;;;;;;5045926;28;20048;-46
2021/09/01 06:51:16;;;;;;;12.30;7.93;;;14.80;99.90;;;;;;5040838;28;20104;-45
2021/09/01 06:53:41;;;;;;;16.98;8.55;;;14.90;99.90;;;;;;5039325;28;20101;-47
2021/09/01 06:56:08;;;;;;;20.30;9.65;;;15.00;99.90;;;;;;5043902;28;20033;-46
2021/09/01 06:58:34;;;;;;;12.93;9.65;;;15.00;99.90;;;;;;5046215;28;20032;-46
2021/09/01 07:01:00;;;;;;;15.50;9.90;;;15.00;99.90;;;;;;5049143;28;20021;-50
2021/09/01 07:03:26;;;;;;;12.18;8.02;;;15.10;99.90;;;;;;5047656;28;20108;-47
2021/09/01 07:05:51;;;;;;;14.00;9.27;;;15.10;99.90;;;;;;5048548;28;20476;-48
2021/09/01 07:08:17;;;;;;;10.30;8.25;;;15.10;99.90;;;;;;5048086;28;20017;-48
2021/09/01 07:10:45;;;;;;;12.00;8.68;;;15.10;99.90;;;;;;5050630;28;20044;-48
2021/09/01 07:13:12;;;;;;;14.85;9.10;;;15.20;99.90;;;;;;5039683;28;20044;-51
2021/09/01 07:15:38;;;;;;;10.93;8.77;;;15.20;99.90;;;;;;5041508;28;20029;-51
2021/09/01 07:18:04;;;;;;;10.15;7.72;;;15.30;99.90;;;;;;5039163;28;20040;-47
2021/09/01 07:20:30;;;;;;;9.93;7.55;;;15.40;99.90;;;;;;5041981;28;20406;-53
2021/09/01 07:22:56;;;;;;;17.33;8.50;;;15.50;99.90;;;;;;5038203;28;20025;-48
2021/09/01 07:25:22;;;;;;;12.18;7.63;;;15.50;99.90;;;;;;5045242;28;20731;-45
2021/09/01 07:27:47;;;;;;;12.25;8.13;;;15.60;99.90;;;;;;5037782;28;20021;-48
2021/09/01 07:30:13;;;;;;;13.75;8.88;;;15.50;99.90;;;;;;5041304;28;20030;-50
2021/09/01 07:32:39;;;;;;;12.63;8.00;;;15.40;99.90;;;;;;5042839;28;20026;-46
2021/09/01 07:35:05;;;;;;;15.35;8.38;;;15.40;99.90;;;;;;5039175;28;20112;-49
2021/09/01 07:37:30;;;;;;;14.85;9.65;;;15.60;99.90;;;;;;5044277;28;20076;-50
2021/09/01 07:39:56;;;;;;;16.33;8.68;;;15.80;99.90;;;;;;5039404;28;20026;-50
2021/09/01 07:42:21;;;;;;;14.00;7.63;;;15.90;99.90;;;;;;5046884;28;20022;-46
2021/09/01 07:44:47;;;;;;;12.77;8.75;;;16.00;99.90;;;;;;5039164;28;20021;-46
2021/09/01 07:47:12;;;;;;;15.13;8.82;;;16.20;99.90;;;;;;5041785;28;20025;-50
2021/09/01 07:49:38;;;;;;;12.82;7.82;;;16.30;99.90;;;;;;5042890;28;20379;-50
2021/09/01 07:52:04;;;;;;;12.48;7.47;;;16.40;99.90;;;;;;5039618;28;20021;-47
2021/09/01 07:54:30;;;;;;;11.93;7.70;;;16.60;99.90;;;;;;5044907;28;20071;-47
2021/09/01 07:56:56;;;;;;;12.98;7.55;;;16.70;99.90;;;;;;5037023;28;20438;-46
2021/09/01 07:59:21;;;;;;;14.57;8.18;;;16.80;99.90;;;;;;5045581;28;20022;-49
2021/09/01 08:01:47;;;;;;;16.48;7.70;;;17.00;99.90;;;;;;5038704;28;20021;-52
2021/09/01 08:04:13;;;;;;;15.15;8.27;;;17.20;99.90;;;;;;5041385;28;20472;-48
2021/09/01 08:06:38;;;;;;;16.98;7.55;;;17.40;99.90;;;;;;5042192;28;20021;-50
2021/09/01 08:09:04;;;;;;;10.20;7.00;;;17.60;99.90;;;;;;5038162;28;20025;-48
2021/09/01 08:11:30;;;;;;;10.48;6.40;;;17.70;99.90;;;;;;5044291;28;20033;-55
2021/09/01 08:13:56;;;;;;;9.23;7.18;;;17.90;99.90;;;;;;5037105;28;20049;-53
2021/09/01 08:16:22;;;;;;;9.70;6.65;;;18.20;99.90;;;;;;5040702;28;20057;-48
2021/09/01 08:18:47;;;;;;;9.98;6.65;;;18.30;99.90;;;;;;5041583;28;20725;-48
2021/09/01 08:21:13;;;;;;;8.50;5.95;;;18.60;99.90;;;;;;5041118;28;20036;-46
2021/09/01 08:23:39;;;;;;;11.05;7.20;;;18.70;99.90;;;;;;5042405;28;20028;-46
2021/09/01 08:26:05;;;;;;;8.00;6.35;;;18.80;99.90;;;;;;5041106;28;20104;-46
2021/09/01 08:28:30;;;;;;;12.80;6.43;;;19.00;99.90;;;;;;5041976;28;20537;-47
2021/09/01 08:30:56;;;;;;;11.88;6.63;;;19.10;99.90;;;;;;5039884;28;20384;-50
2021/09/01 08:33:22;;;;;;;11.10;6.30;;;19.10;99.90;;;;;;5041658;28;20276;-46
2021/09/01 08:35:47;;;;;;;10.95;5.88;;;19.40;99.90;;;;;;5040128;28;20021;-47
2021/09/01 08:38:14;;;;;;;11.32;6.88;;;19.60;99.90;;;;;;5040610;28;20518;-46
2021/09/01 08:40:39;;;;;;;13.00;6.40;;;19.80;99.90;;;;;;5040585;28;20103;-48
2021/09/01 08:43:07;;;;;;;11.65;5.80;;;20.00;99.90;;;;;;5045687;28;20104;-48
2021/09/01 08:45:33;;;;;;;7.10;5.10;;;20.20;99.90;;;;;;5045113;28;20399;-48
2021/09/01 08:48:00;;;;;;;8.20;5.88;;;20.40;99.90;;;;;;5045087;28;20028;-53
2021/09/01 08:50:29;;;;;;;9.45;6.30;;;20.60;99.90;;;;;;5047695;28;20055;-46
2021/09/01 08:52:56;;;;;;;10.70;5.88;;;20.80;99.90;;;;;;5045379;28;20491;-52
2021/09/01 08:55:22;;;;;;;7.25;5.05;;;20.90;99.90;;;;;;5045500;28;20083;-51
2021/09/01 08:57:47;;;;;;;9.40;5.43;;;21.00;99.90;;;;;;5038617;28;20561;-47
2021/09/01 09:00:14;;;;;;;7.47;5.93;;;21.20;99.90;;;;;;5040193;28;20017;-50
2021/09/01 09:02:39;;;;;;;8.80;5.30;;;21.40;99.90;;;;;;5039438;28;20088;-48
2021/09/01 09:05:08;;;;;;;6.07;5.18;;;21.30;99.90;;;;;;5031950;28;20147;-56
2021/09/01 09:07:53;;;;;;;8.80;5.57;;;21.40;99.90;;;;;;5043024;28;20021;-52
2021/09/01 09:10:29;;;;;;;8.10;5.37;;;21.60;99.90;;;;;;5029457;28;20045;-50
2021/09/01 09:12:59;;;;;;;10.07;5.97;;;21.60;99.90;;;;;;5037321;28;20052;-53
2021/09/01 09:15:24;;;;;;;8.98;5.60;;;21.70;99.90;;;;;;5042431;28;20021;-52
2021/09/01 09:17:50;;;;;;;9.60;5.43;;;21.80;99.90;;;;;;5037647;28;20017;-50
2021/09/01 09:20:23;;;;;;;6.13;4.82;;;22.00;99.90;;;;;;5037839;28;20098;-53
2021/09/01 09:22:50;;;;;;;9.55;5.50;;;22.10;99.90;;;;;;5038964;28;20025;-48
2021/09/01 09:25:18;;;;;;;6.93;5.15;;;22.10;99.90;;;;;;5043641;28;20450;-49
2021/09/01 09:27:57;;;;;;;6.03;5.35;;;21.90;99.90;;;;;;5037380;28;20020;-54
2021/09/01 09:30:22;;;;;;;9.50;5.72;;;22.00;99.90;;;;;;5040900;28;20060;-47
2021/09/01 09:33:14;;;;;;;8.02;5.32;;;22.00;99.90;;;;;;5039311;28;20603;-50
2021/09/01 09:36:00;;;;;;;9.25;6.35;;;22.00;99.90;;;;;;5030397;28;20027;-49
2021/09/01 09:38:32;;;;;;;8.10;4.85;;;21.90;99.90;;;;;;5040379;28;20055;-48
2021/09/01 09:41:02;;;;;;;7.78;5.07;;;21.90;99.90;;;;;;5039722;28;20158;-51
2021/09/01 09:43:28;;;;;;;8.98;4.95;;;22.00;99.90;;;;;;5040329;28;20089;-52
2021/09/01 09:46:07;;;;;;;6.43;4.55;;;22.00;99.90;;;;;;5039062;28;20048;-50
2021/09/01 09:48:34;;;;;;;6.85;4.85;;;22.00;99.90;;;;;;5033263;28;20024;-51
2021/09/01 09:51:02;;;;;;;7.57;4.70;;;21.90;99.90;;;;;;5038456;28;20041;-51
2021/09/01 09:53:31;;;;;;;8.07;5.18;;;22.00;99.90;;;;;;5040014;28;20035;-50
2021/09/01 09:56:15;;;;;;;8.50;5.35;;;22.00;99.90;;;;;;5039513;28;20448;-55
2021/09/01 09:58:46;;;;;;;8.27;4.40;;;22.00;99.90;;;;;;5037582;28;20024;-51
2021/09/01 10:01:13;;;;;;;8.95;5.15;;;22.00;99.90;;;;;;5039482;28;20048;-51
2021/09/01 10:03:39;;;;;;;7.78;5.47;;;21.70;99.90;;;;;;5036801;28;20040;-54
2021/09/01 10:06:07;;;;;;;8.63;6.05;;;21.70;99.90;;;;;;5038026;28;20017;-49
2021/09/01 10:08:34;;;;;;;9.02;5.88;;;21.60;99.90;;;;;;5031963;28;20029;-50
2021/09/01 10:11:04;;;;;;;9.10;5.80;;;21.60;99.90;;;;;;5043337;28;20060;-49
2021/09/01 10:13:30;;;;;;;5.40;4.85;;;21.70;99.90;;;;;;5040339;28;20477;-52
2021/09/01 10:16:01;;;;;;;10.25;5.50;;;21.70;99.90;;;;;;5045573;28;20021;-48
2021/09/01 10:18:30;;;;;;;7.15;5.75;;;21.70;99.90;;;;;;5045041;28;20025;-50
2021/09/01 10:20:57;;;;;;;7.90;5.72;;;21.70;99.90;;;;;;5043840;28;20021;-50
2021/09/01 10:23:43;;;;;;;11.07;5.72;;;21.60;99.90;;;;;;5044701;28;20036;-50
2021/09/01 10:26:22;;;;;;;;;;;21.70;99.90;;;;;;5043207;28;20029;-48
2021/09/01 10:28:48;;;;;;;7.15;5.00;;;21.70;99.90;;;;;;5031367;28;19912;-52
2021/09/01 10:31:16;;;;;;;7.88;5.40;;;21.70;99.90;;;;;;5036816;28;20021;-48
2021/09/01 10:33:46;;;;;;;9.63;6.00;;;21.50;99.90;;;;;;5036863;28;20634;-51
2021/09/01 10:36:24;;;;;;;6.65;5.22;;;21.30;99.90;;;;;;5031527;28;20439;-52
2021/09/01 10:38:57;;;;;;;8.75;5.93;;;21.40;99.90;;;;;;5036599;28;20027;-48
2021/09/01 10:41:26;;;;;;;10.13;5.78;;;21.40;99.90;;;;;;5022225;28;20046;-49
2021/09/01 10:43:54;;;;;;;9.23;6.07;;;21.30;99.90;;;;;;5040174;28;20036;-51
2021/09/01 10:46:20;;;;;;;7.20;5.20;;;21.40;99.90;;;;;;5026782;28;20017;-49
2021/09/01 10:49:01;;;;;;;7.32;5.35;;;21.40;99.90;;;;;;5038958;28;20036;-50
2021/09/01 10:51:28;;;;;;;6.05;4.68;;;21.30;99.90;;;;;;5029086;28;20072;-48
2021/09/01 10:53:54;;;;;;;6.82;4.70;;;21.20;99.90;;;;;;5032871;28;20029;-50
2021/09/01 10:56:19;;;;;;;7.15;5.85;;;21.30;99.90;;;;;;5033094;28;20107;-54
2021/09/01 10:58:46;;;;;;;7.43;5.88;;;21.30;99.90;;;;;;5034732;28;20195;-51
2021/09/01 11:01:11;;;;;;;7.53;5.80;;;21.40;99.90;;;;;;5036044;28;20399;-52
2021/09/01 11:03:39;;;;;;;5.57;5.00;;;21.30;99.90;;;;;;5030397;28;20018;-49
2021/09/01 11:06:24;;;;;;;8.50;5.80;;;21.40;99.90;;;;;;5040852;28;20025;-51
2021/09/01 11:09:00;;;;;;;5.50;4.63;;;21.50;99.90;;;;;;5026287;28;20018;-50
2021/09/01 11:11:47;;;;;;;10.35;5.20;;;21.60;99.90;;;;;;5037416;28;20021;-51
2021/09/01 11:14:54;;;;;;;8.68;5.43;;;21.70;99.90;;;;;;5035597;28;20053;-52
2021/09/01 11:17:24;;;;;;;6.32;5.10;;;21.60;99.90;;;;;;5033149;28;20419;-53
2021/09/01 11:19:53;;;;;;;8.27;5.40;;;21.70;99.90;;;;;;5041998;28;20104;-48
2021/09/01 11:22:24;;;;;;;8.40;5.20;;;21.70;99.90;;;;;;5034718;28;20021;-50
2021/09/01 11:24:53;;;;;;;7.45;4.85;;;21.70;99.90;;;;;;5043312;28;20094;-53
2021/09/01 11:27:25;;;;;;;6.35;4.80;;;21.70;99.90;;;;;;5037603;28;20033;-50
2021/09/01 11:29:58;;;;;;;8.48;5.40;;;21.80;99.90;;;;;;5035900;28;20032;-52
2021/09/01 11:32:23;;;;;;;6.57;5.40;;;21.80;99.90;;;;;;5034516;28;20483;-54
2021/09/01 11:34:49;;;;;;;7.25;4.53;;;21.90;99.90;;;;;;5039351;28;20247;-46
2021/09/01 11:37:16;;;;;;;5.30;4.40;;;21.90;99.90;;;;;;5045668;28;20045;-51
2021/09/01 11:39:43;;;;;;;8.07;6.10;;;21.90;99.90;;;;;;5038703;28;20415;-49
2021/09/01 11:42:09;;;;;;;7.55;5.05;;;22.00;99.90;;;;;;5046903;28;20039;-51
2021/09/01 11:44:35;;;;;;;5.97;4.80;;;22.00;99.90;;;;;;5038929;28;20018;-51
2021/09/01 11:47:01;;;;;;;7.47;4.80;;;22.10;99.90;;;;;;5044402;28;20051;-51
2021/09/01 11:49:26;;;;;;;11.43;5.78;;;22.20;99.90;;;;;;5048974;28;20047;-52
2021/09/01 11:51:52;;;;;;;7.18;5.45;;;22.20;99.90;;;;;;5038160;28;20556;-54
2021/09/01 11:54:18;;;;;;;8.77;5.30;;;22.30;99.90;;;;;;5044205;28;20084;-51
2021/09/01 11:56:44;;;;;;;5.10;4.22;;;22.30;99.90;;;;;;5037041;28;20169;-50
2021/09/01 11:59:13;;;;;;;8.63;4.95;;;22.30;99.90;;;;;;5045501;28;20578;-46
2021/09/01 12:01:50;;;;;;;6.07;4.63;;;22.40;99.90;;;;;;5036141;28;20529;-47
2021/09/01 12:04:17;;;;;;;6.05;4.70;;;22.40;99.90;;;;;;5040959;28;20028;-52
2021/09/01 12:06:45;;;;;;;6.47;4.25;;;22.40;99.90;;;;;;5040691;28;20025;-54
2021/09/01 12:09:13;;;;;;;7.03;4.85;;;22.50;99.90;;;;;;5040738;28;20018;-51
2021/09/01 12:12:00;;;;;;;6.95;4.75;;;22.40;99.90;;;;;;5043093;28;20047;-50
2021/09/01 12:14:28;;;;;;;6.25;4.68;;;22.20;99.90;;;;;;5040558;28;20070;-51
2021/09/01 12:17:13;;;;;;;6.38;4.28;;;22.00;99.90;;;;;;5041851;28;20032;-44
2021/09/01 12:19:49;;;;;;;7.72;4.40;;;22.00;99.90;;;;;;5036442;28;20602;-46
2021/09/01 12:22:28;;;;;;;8.45;4.25;;;22.10;99.90;;;;;;5036431;28;20459;-48
2021/09/01 12:25:01;;;;;;;8.25;4.93;;;22.20;99.90;;;;;;5046374;28;20486;-47
2021/09/01 12:27:27;;;;;;;7.57;5.10;;;22.50;99.90;;;;;;5033903;28;20026;-52
2021/09/01 12:29:52;;;;;;;5.38;4.40;;;22.60;99.90;;;;;;5037615;28;20420;-49
2021/09/01 12:32:21;;;;;;;5.43;4.32;;;22.60;99.90;;;;;;5044085;28;20108;-48
2021/09/01 12:34:57;;;;;;;8.10;5.03;;;22.60;99.90;;;;;;5035851;28;20523;-54
2021/09/01 12:37:31;;;;;;;5.22;4.15;;;22.60;99.90;;;;;;5031438;28;20149;-51
2021/09/01 12:40:00;;;;;;;6.35;4.47;;;22.60;99.90;;;;;;5035407;28;20017;-50
2021/09/01 12:42:43;;;;;;;5.43;4.28;;;22.50;99.90;;;;;;5047371;28;20683;-46